MA51 weather

Public forecast

Using degrees Fahrenheit for public forecast. Weather courtesy of forecast.io.

Closest aviation weather report (METAR) to Richie's Heliport

Closest report is New Bedford Regional Airport, 4.3 nm (8.0 km) ENE. Retrieved 2020/08/15 16:23 UTC (30 minutes ago):

KEWB 151623Z 04012G17KT 10SM OVC016 21/18 A3004 RMK AO2 T02110178

Closest aviation forecast (TAF) to Richie's Heliport

Closest forecast is Theodore Francis Green State Airport, 18.0 nm (33.4 km) WNW. Retrieved 2020/08/15 12:22 UTC (5 hours ago):

TAF KPVD 151120Z 1512/1612 02013G23KT P6SM BKN015 FM151600 03014G25KT P6SM BKN020 FM160000 03008KT P6SM BKN035 FM160400 03006KT P6SM BKN015